This is the latest recevied weather packets stored in our database for station/object KP4OZ. If no packets are shown the sender has not sent any weather packets the latest 1 day(s).
| Time | Temp. | Humidity | Pressure | Rain* | Wind** | Luminosity | Snow |
|---|---|---|---|---|---|---|---|
| 1777996045 | 33.33° C | 54% | 1017.4 hPa | 0 mm | 1.79 m/s, 119° | - | - |
| 1777995741 | 33.33° C | 53% | 1017.4 hPa | 0 mm | 2.68 m/s, 115° | - | - |
| 1777995438 | 33.33° C | 53% | 1017.3 hPa | 0 mm | 2.68 m/s, 96° | - | - |
| 1777995135 | 32.78° C | 53% | 1017.6 hPa | 0 mm | 1.79 m/s, 113° | - | - |
| 1777994832 | 33.33° C | 55% | 1017.3 hPa | 0 mm | 1.79 m/s, 160° | - | - |
| 1777994528 | 32.78° C | 56% | 1017.5 hPa | 0 mm | 1.79 m/s, 160° | - | - |
| 1777994223 | 32.78° C | 56% | 1017.5 hPa | 0 mm | 4.47 m/s, 101° | - | - |
| 1777993921 | 32.22° C | 57% | 1017.4 hPa | 0 mm | 1.34 m/s, 167° | - | - |
| 1777993617 | 32.78° C | 56% | 1017.3 hPa | 0 mm | 3.58 m/s, 120° | - | - |
| 1777993315 | 32.78° C | 56% | 1017.4 hPa | 0 mm | 1.79 m/s, 127° | - | - |
| 1777993014 | 32.78° C | 56% | 1017.4 hPa | 0 mm | 0.89 m/s, 168° | - | - |
| 1777992714 | 32.78° C | 55% | 1017.6 hPa | 0 mm | 2.68 m/s, 107° | - | - |
| 1777992411 | 32.22° C | 56% | 1017.6 hPa | 0 mm | 0.89 m/s, 122° | - | - |
| 1777992108 | 32.78° C | 56% | 1017.6 hPa | 0 mm | 1.79 m/s, 131° | - | - |
| 1777991806 | 31.67° C | 57% | 1017.7 hPa | 0 mm | 2.24 m/s, 163° | - | - |
| 1777991503 | 31.67° C | 57% | 1017.8 hPa | 0 mm | 2.68 m/s, 101° | - | - |
| 1777991200 | 32.22° C | 56% | 1017.8 hPa | 0 mm | 4.02 m/s, 113° | - | - |
| 1777990897 | 32.22° C | 56% | 1017.7 hPa | 0 mm | 2.24 m/s, 127° | - | - |
| 1777990595 | 32.22° C | 58% | 1017.7 hPa | 0 mm | 2.68 m/s, 122° | - | - |
| 1777990291 | 32.78° C | 58% | 1017.7 hPa | 0 mm | 2.24 m/s, 102° | - | - |
| 1777989988 | 32.78° C | 58% | 1017.9 hPa | 0 mm | 1.79 m/s, 120° | - | - |
| 1777989685 | 32.22° C | 59% | 1017.7 hPa | 0 mm | 1.34 m/s, 58° | - | - |
| 1777989386 | 31.67° C | 60% | 1017.7 hPa | 0 mm | 1.79 m/s, 39° | - | - |
| 1777989083 | 30° C | 65% | 1017.8 hPa | 0 mm | 1.79 m/s, 137° | - | - |
| 1777988778 | 30° C | 66% | 1017.8 hPa | 0 mm | 0.89 m/s, 161° | - | - |
* Rain latest hour (hover to see other rain measurements)
** Current wind speed in m/s (hover to see current wind gust speed)